Time;durP1;ratioP1;P1;durP2;ratioP2;P2;SDS_P1;SDS_P2;PMS_P1;PMS_P2;Temp;Humidity;BMP_temperature;BMP_pressure;BME280_temperature;BME280_humidity;BME280_pressure;Samples;Min_cycle;Max_cycle;Signal;HPM_P1;HPM_P2
2022/05/25 00:01:40;;;;;;;1.15;1.05;;;13.90;99.90;;;;;;5083968;28;20036;-78
2022/05/25 00:04:06;;;;;;;1.67;1.10;;;14.00;99.90;;;;;;5084534;28;20025;-78
2022/05/25 00:06:32;;;;;;;1.10;1.00;;;13.90;99.90;;;;;;5084647;28;20020;-78
2022/05/25 00:08:58;;;;;;;0.80;0.80;;;14.00;99.90;;;;;;5085666;28;20066;-78
2022/05/25 00:11:24;;;;;;;1.15;1.02;;;14.00;99.90;;;;;;5068710;28;20024;-79
2022/05/25 00:13:50;;;;;;;0.80;0.80;;;14.00;99.90;;;;;;5084410;28;20522;-80
2022/05/25 00:16:17;;;;;;;0.70;0.70;;;14.00;99.90;;;;;;5065398;28;20040;-78
2022/05/25 00:21:27;;;;;;;0.95;0.95;;;14.00;99.90;;;;;;5084486;28;20071;-79
2022/05/25 00:23:53;;;;;;;1.00;0.90;;;14.00;99.90;;;;;;5084246;28;20021;-79
2022/05/25 00:26:19;;;;;;;1.17;1.00;;;14.00;99.90;;;;;;5084272;28;20021;-79
2022/05/25 00:28:45;;;;;;;1.13;1.00;;;14.00;99.90;;;;;;5066929;28;20033;-78
2022/05/25 00:31:11;;;;;;;0.80;0.77;;;13.90;99.90;;;;;;5066053;28;20025;-78
2022/05/25 00:33:37;;;;;;;1.13;0.88;;;13.90;99.90;;;;;;5082008;28;20040;-78
2022/05/25 00:36:05;;;;;;;1.90;1.00;;;13.80;99.90;;;;;;5083241;28;20035;-78
2022/05/25 00:38:31;;;;;;;1.00;1.00;;;13.80;99.90;;;;;;5064963;28;20377;-78
2022/05/25 00:40:57;;;;;;;1.23;1.17;;;13.80;99.90;;;;;;5086223;28;20080;-80
2022/05/25 00:43:24;;;;;;;1.02;0.93;;;13.80;99.90;;;;;;5084492;28;20025;-79
2022/05/25 00:46:04;;;;;;;0.77;0.68;;;13.90;99.90;;;;;;5066335;28;20020;-79
2022/05/25 00:48:44;;;;;;;0.80;0.80;;;13.90;99.90;;;;;;5090276;28;20043;-79
2022/05/25 00:51:15;;;;;;;0.77;0.77;;;13.90;99.90;;;;;;5084228;28;20031;-79
2022/05/25 00:53:58;;;;;;;0.80;0.80;;;13.90;99.90;;;;;;5066902;28;20024;-80
2022/05/25 00:56:26;;;;;;;0.77;0.73;;;13.90;99.90;;;;;;5083461;28;20036;-79
2022/05/25 00:59:16;;;;;;;1.17;1.13;;;13.80;99.90;;;;;;5083787;28;20024;-79
2022/05/25 01:01:43;;;;;;;0.60;0.60;;;13.80;99.90;;;;;;5082416;28;20059;-79
2022/05/25 01:04:10;;;;;;;1.10;1.00;;;13.80;99.90;;;;;;5083227;28;20032;-79
2022/05/25 01:07:35;;;;;;;1.23;0.95;;;13.80;99.90;;;;;;5084530;28;20169;-79
2022/05/25 01:10:13;;;;;;;0.70;0.70;;;13.80;99.90;;;;;;5074064;28;20036;-79
2022/05/25 01:12:48;;;;;;;1.20;0.90;;;13.90;99.90;;;;;;5083203;28;20036;-79
2022/05/25 01:15:28;;;;;;;0.80;0.80;;;13.90;99.90;;;;;;5082712;28;20461;-79
2022/05/25 01:18:23;;;;;;;0.70;0.70;;;13.90;99.90;;;;;;5066799;28;20017;-79
2022/05/25 01:20:57;;;;;;;0.70;0.70;;;14.00;99.90;;;;;;5078768;28;20023;-78
2022/05/25 01:23:44;;;;;;;0.60;0.60;;;14.00;99.90;;;;;;5080786;28;20028;-78
2022/05/25 01:26:43;;;;;;;2.10;0.90;;;14.10;99.90;;;;;;5078798;28;20076;-77
2022/05/25 01:29:14;;;;;;;0.52;0.50;;;14.10;99.90;;;;;;5042180;28;20071;-78
2022/05/25 01:31:43;;;;;;;0.60;0.60;;;14.10;99.90;;;;;;5060479;28;20025;-78
2022/05/25 01:34:18;;;;;;;0.40;0.40;;;14.10;99.90;;;;;;5060289;28;20111;-78
2022/05/25 01:37:00;;;;;;;0.52;0.50;;;14.00;99.90;;;;;;5066318;28;20036;-78
2022/05/25 01:39:31;;;;;;;0.55;0.43;;;14.00;99.90;;;;;;5081883;28;20048;-79
2022/05/25 01:42:05;;;;;;;0.52;0.52;;;14.00;99.90;;;;;;5070601;28;20050;-77
2022/05/25 01:44:40;;;;;;;0.65;0.65;;;14.00;99.90;;;;;;5076955;28;20015;-77
2022/05/25 01:47:09;;;;;;;0.40;0.40;;;14.00;99.90;;;;;;5082611;28;20062;-78
2022/05/25 01:50:05;;;;;;;0.80;0.80;;;14.00;99.90;;;;;;5087987;28;20024;-80
2022/05/25 01:52:42;;;;;;;1.25;0.68;;;14.00;99.90;;;;;;5098789;28;20134;-79
2022/05/25 01:55:17;;;;;;;2.83;2.60;;;14.00;99.90;;;;;;5102597;28;20472;-80
2022/05/25 01:57:47;;;;;;;4.22;2.60;;;14.00;99.90;;;;;;5088790;28;20052;-79
2022/05/25 02:00:30;;;;;;;1.70;1.20;;;14.00;99.90;;;;;;5082473;28;20017;-79
2022/05/25 02:05:49;;;;;;;1.30;0.98;;;14.00;99.90;;;;;;5081811;28;20096;-79
2022/05/25 02:09:04;;;;;;;1.27;1.10;;;14.00;99.90;;;;;;5081264;28;20067;-79
2022/05/25 02:11:43;;;;;;;2.40;1.00;;;14.00;99.90;;;;;;5001736;28;20141;-79
2022/05/25 02:14:08;;;;;;;1.58;1.10;;;14.00;99.90;;;;;;5081156;28;20031;-79
2022/05/25 02:16:58;;;;;;;1.83;1.17;;;14.00;99.90;;;;;;5066000;28;20024;-79
2022/05/25 02:19:56;;;;;;;1.40;1.30;;;14.00;99.90;;;;;;5079465;28;20012;-77
2022/05/25 02:22:44;;;;;;;2.67;1.30;;;13.90;99.90;;;;;;5070899;28;20047;-77
2022/05/25 02:25:20;;;;;;;1.33;1.10;;;13.90;99.90;;;;;;5101933;28;20024;-78
2022/05/25 02:28:15;;;;;;;1.90;1.80;;;13.90;99.90;;;;;;5086171;28;20071;-78
2022/05/25 02:30:57;;;;;;;2.20;1.63;;;13.90;99.90;;;;;;5076855;28;20073;-78
2022/05/25 02:33:46;;;;;;;7.13;2.45;;;13.80;99.90;;;;;;5083447;28;20031;-79
2022/05/25 02:36:13;;;;;;;4.95;2.67;;;13.80;99.90;;;;;;5082063;28;20036;-79
2022/05/25 02:38:41;;;;;;;2.42;2.22;;;13.70;99.90;;;;;;5062933;28;20017;-80
2022/05/25 02:41:14;;;;;;;2.53;2.33;;;13.70;99.90;;;;;;5065744;28;20096;-79
2022/05/25 02:43:39;;;;;;;;;;;13.70;99.90;;;;;;5069452;28;20047;-79
2022/05/25 02:46:07;;;;;;;4.30;2.38;;;13.70;99.90;;;;;;5086737;28;19958;-78
2022/05/25 02:48:34;;;;;;;3.30;2.40;;;13.70;99.90;;;;;;5088504;28;20357;-78
2022/05/25 02:51:00;;;;;;;3.38;1.98;;;13.60;99.90;;;;;;5061383;28;20096;-79
2022/05/25 02:53:25;;;;;;;1.95;1.85;;;13.60;99.90;;;;;;5084657;28;20020;-79
2022/05/25 02:55:51;;;;;;;2.17;2.08;;;13.60;99.90;;;;;;5087755;28;20004;-79
2022/05/25 02:58:17;;;;;;;1.95;1.77;;;13.60;99.90;;;;;;5085975;28;20021;-79
2022/05/25 03:00:43;;;;;;;1.95;1.50;;;13.60;99.90;;;;;;5085763;28;20132;-78
2022/05/25 03:03:12;;;;;;;1.35;1.25;;;13.60;99.90;;;;;;5083623;28;20024;-78
2022/05/25 03:05:39;;;;;;;1.80;1.70;;;13.70;99.90;;;;;;5083949;28;20032;-78
2022/05/25 03:08:05;;;;;;;1.15;1.15;;;13.70;99.90;;;;;;5084143;28;20021;-79
2022/05/25 03:10:32;;;;;;;2.70;1.60;;;13.70;99.90;;;;;;5086617;28;20090;-79
2022/05/25 03:12:57;;;;;;;2.15;1.98;;;13.70;99.90;;;;;;5066215;28;20480;-78
2022/05/25 03:15:23;;;;;;;1.42;1.33;;;13.70;99.90;;;;;;5084680;28;20028;-78
2022/05/25 03:17:49;;;;;;;1.60;1.50;;;13.70;99.90;;;;;;5089434;28;20025;-78
2022/05/25 03:20:16;;;;;;;2.40;2.20;;;13.70;99.90;;;;;;5091235;28;20150;-79
2022/05/25 03:22:44;;;;;;;1.90;1.80;;;13.70;99.90;;;;;;5081626;28;20039;-78
2022/05/25 03:25:11;;;;;;;3.45;2.33;;;13.70;99.90;;;;;;5061631;28;20353;-78
2022/05/25 03:27:37;;;;;;;2.00;1.90;;;13.70;99.90;;;;;;5079543;28;20025;-79
2022/05/25 03:30:07;;;;;;;1.80;1.70;;;13.70;99.90;;;;;;5061920;28;20101;-78
2022/05/25 03:32:32;;;;;;;3.55;2.45;;;13.80;99.90;;;;;;5061801;28;20033;-78
2022/05/25 03:34:59;;;;;;;1.95;1.85;;;13.80;99.90;;;;;;5080153;28;20093;-78
2022/05/25 03:37:26;;;;;;;1.95;1.75;;;13.80;99.90;;;;;;5064611;28;20017;-78
2022/05/25 03:39:51;;;;;;;1.77;1.67;;;13.80;99.90;;;;;;5096517;28;20048;-78
2022/05/25 03:42:18;;;;;;;3.13;2.88;;;13.80;99.90;;;;;;5083266;28;20646;-77
2022/05/25 03:44:45;;;;;;;3.25;3.05;;;13.80;99.90;;;;;;5078634;28;20028;-77
2022/05/25 03:47:11;;;;;;;3.17;2.90;;;13.80;99.90;;;;;;5085932;28;20035;-78
2022/05/25 03:49:37;;;;;;;3.40;3.10;;;13.80;99.90;;;;;;5059494;28;20796;-78
2022/05/25 03:52:04;;;;;;;4.93;3.85;;;13.80;99.90;;;;;;5060418;28;20067;-78
2022/05/25 03:54:30;;;;;;;5.55;3.28;;;13.80;99.90;;;;;;5061368;28;20594;-78
2022/05/25 03:56:57;;;;;;;4.63;3.30;;;13.70;99.90;;;;;;5081368;28;20096;-78
2022/05/25 03:59:24;;;;;;;3.50;3.20;;;13.70;99.90;;;;;;5084431;28;20096;-78
2022/05/25 04:01:50;;;;;;;3.70;3.40;;;13.70;99.90;;;;;;5084894;28;20021;-78
2022/05/25 04:04:16;;;;;;;3.17;2.88;;;13.70;99.90;;;;;;5084316;28;20033;-78
2022/05/25 04:06:41;;;;;;;5.38;3.40;;;13.70;99.90;;;;;;5067800;28;20027;-78
2022/05/25 04:09:09;;;;;;;4.28;3.88;;;13.80;99.90;;;;;;5083376;28;20050;-78
2022/05/25 04:11:35;;;;;;;4.90;3.63;;;13.70;99.90;;;;;;5098511;28;20029;-77
2022/05/25 04:14:01;;;;;;;5.20;4.47;;;13.80;99.90;;;;;;5085361;28;20016;-78
2022/05/25 04:16:27;;;;;;;4.93;4.43;;;13.80;99.90;;;;;;5084899;28;20032;-78
2022/05/25 04:18:53;;;;;;;4.60;4.15;;;13.80;99.90;;;;;;5101118;28;20059;-76
2022/05/25 04:21:18;;;;;;;5.32;4.82;;;13.70;99.90;;;;;;5114266;28;20020;-77
2022/05/25 04:23:44;;;;;;;5.40;4.88;;;13.80;99.90;;;;;;5085838;28;20044;-78
2022/05/25 04:26:10;;;;;;;4.70;4.22;;;13.70;99.90;;;;;;5075582;28;20012;-78
2022/05/25 04:28:37;;;;;;;5.68;5.13;;;13.80;99.90;;;;;;5086480;28;20043;-78
2022/05/25 04:31:03;;;;;;;4.78;4.38;;;13.80;99.90;;;;;;5081258;28;20016;-78
2022/05/25 04:33:30;;;;;;;5.50;5.00;;;13.90;99.90;;;;;;5078959;28;20043;-78
2022/05/25 04:35:57;;;;;;;6.65;5.15;;;13.90;99.90;;;;;;5079102;28;20021;-78
2022/05/25 04:38:23;;;;;;;6.20;4.40;;;13.90;99.90;;;;;;5081644;28;20021;-79
2022/05/25 04:40:49;;;;;;;5.45;4.70;;;13.90;99.90;;;;;;5062199;28;20074;-76
2022/05/25 04:43:18;;;;;;;4.75;4.22;;;13.90;99.90;;;;;;5080039;28;20051;-78
2022/05/25 04:45:46;;;;;;;4.85;4.35;;;13.80;99.90;;;;;;5081603;28;20138;-80
2022/05/25 04:48:13;;;;;;;5.32;4.82;;;13.80;99.90;;;;;;5081984;28;20028;-78
2022/05/25 04:50:41;;;;;;;5.97;5.38;;;13.80;99.90;;;;;;5075965;28;20075;-78
2022/05/25 04:53:10;;;;;;;7.93;5.43;;;13.70;99.90;;;;;;5077323;28;20165;-78
2022/05/25 04:58:35;;;;;;;7.38;5.85;;;13.70;99.90;;;;;;5077244;28;20599;-78
2022/05/25 05:01:03;;;;;;;6.20;5.53;;;13.70;99.90;;;;;;5078992;28;20080;-78
2022/05/25 05:03:29;;;;;;;6.82;6.10;;;13.70;99.90;;;;;;5079850;28;20068;-80
2022/05/25 05:06:00;;;;;;;9.98;7.40;;;13.70;99.90;;;;;;5066426;28;20042;-78
2022/05/25 05:08:26;;;;;;;7.90;7.05;;;13.70;99.90;;;;;;5068968;28;20047;-80
2022/05/25 05:10:52;;;;;;;10.73;7.15;;;13.70;99.90;;;;;;5089601;28;20024;-81
2022/05/25 05:13:19;;;;;;;7.65;6.85;;;13.70;99.90;;;;;;5078080;28;20106;-79
2022/05/25 05:15:50;;;;;;;10.95;7.53;;;13.60;99.90;;;;;;5079275;28;20072;-79
2022/05/25 05:18:18;;;;;;;9.30;8.07;;;13.50;99.90;;;;;;5084040;28;20020;-78
2022/05/25 05:20:43;;;;;;;12.10;8.63;;;13.40;99.90;;;;;;5059894;28;20025;-80
2022/05/25 05:23:09;;;;;;;11.98;7.78;;;13.40;99.90;;;;;;5062002;28;20040;-79
2022/05/25 05:25:35;;;;;;;8.80;7.43;;;13.40;99.90;;;;;;5096232;28;20081;-79
2022/05/25 05:28:08;;;;;;;9.77;7.68;;;13.40;99.90;;;;;;5081322;28;20044;-79
2022/05/25 05:30:38;;;;;;;10.88;8.30;;;13.40;99.90;;;;;;5065463;28;20036;-79
2022/05/25 05:33:04;;;;;;;9.60;8.40;;;13.40;99.90;;;;;;5081289;28;20033;-79
2022/05/25 05:35:30;;;;;;;9.98;8.25;;;13.40;99.90;;;;;;5085325;28;20020;-79
2022/05/25 05:37:57;;;;;;;9.75;8.80;;;13.40;99.90;;;;;;5093212;28;20036;-79
2022/05/25 05:40:24;;;;;;;9.90;8.00;;;13.50;99.90;;;;;;5080918;28;20028;-78
2022/05/25 05:42:52;;;;;;;12.05;8.68;;;13.50;99.90;;;;;;5081537;28;20028;-79
2022/05/25 05:45:27;;;;;;;13.50;9.65;;;13.40;99.90;;;;;;5062760;28;20034;-79
2022/05/25 05:48:03;;;;;;;14.63;8.27;;;13.40;99.90;;;;;;5087848;22;20499;-82
2022/05/25 05:50:31;;;;;;;8.68;6.78;;;13.40;99.90;;;;;;5049272;28;20343;-84
2022/05/25 05:52:57;;;;;;;10.30;8.88;;;13.30;99.90;;;;;;5048428;28;20113;-82
2022/05/25 05:55:23;;;;;;;11.27;7.70;;;13.30;99.90;;;;;;5049367;28;20025;-80
2022/05/25 05:57:50;;;;;;;10.23;8.07;;;13.20;99.90;;;;;;5048617;28;20068;-80
2022/05/25 06:00:16;;;;;;;9.45;8.45;;;13.20;99.90;;;;;;5029676;28;20021;-81
2022/05/25 06:02:43;;;;;;;10.27;9.10;;;13.20;99.90;;;;;;5047434;28;20053;-81
2022/05/25 06:05:10;;;;;;;10.70;8.65;;;13.20;99.90;;;;;;5041451;28;20082;-81
2022/05/25 06:07:37;;;;;;;14.00;9.88;;;13.20;99.90;;;;;;5047484;28;20112;-81
2022/05/25 06:10:05;;;;;;;11.05;9.85;;;13.20;99.90;;;;;;5037103;28;20034;-82
2022/05/25 06:12:32;;;;;;;12.13;9.90;;;13.20;99.90;;;;;;5055228;28;20044;-81
2022/05/25 06:14:58;;;;;;;10.95;9.85;;;13.10;99.90;;;;;;5054577;28;20036;-82
2022/05/25 06:20:09;;;;;;;11.70;9.75;;;13.10;99.90;;;;;;5042798;28;20615;-82
2022/05/25 06:22:35;;;;;;;9.90;8.95;;;13.00;99.90;;;;;;5024655;28;20149;-83
2022/05/25 06:25:02;;;;;;;10.63;9.18;;;13.00;99.90;;;;;;5042326;28;20136;-81
2022/05/25 06:27:28;;;;;;;11.25;9.60;;;13.10;99.90;;;;;;5046453;28;20080;-82
2022/05/25 06:29:54;;;;;;;11.50;8.82;;;13.10;99.90;;;;;;5050517;28;20041;-81
2022/05/25 06:32:27;;;;;;;8.88;7.82;;;13.20;99.90;;;;;;5052519;28;20045;-81
2022/05/25 06:34:53;;;;;;;10.70;7.72;;;13.20;99.90;;;;;;5026093;28;20053;-82
2022/05/25 06:37:22;;;;;;;10.00;7.03;;;13.20;99.90;;;;;;5048779;28;20036;-80
2022/05/25 06:39:54;;;;;;;9.77;8.10;;;13.30;99.90;;;;;;5052502;28;20022;-80
2022/05/25 06:42:20;;;;;;;7.10;6.40;;;13.30;99.90;;;;;;5033713;28;20030;-80
2022/05/25 06:44:45;;;;;;;7.45;6.72;;;13.40;99.90;;;;;;5049864;28;20045;-80
2022/05/25 06:47:21;;;;;;;8.73;7.45;;;13.40;99.90;;;;;;5062410;28;20025;-81
2022/05/25 06:49:47;;;;;;;7.63;6.82;;;13.40;99.90;;;;;;5057025;28;20053;-81
2022/05/25 06:52:14;;;;;;;7.07;6.38;;;13.50;99.90;;;;;;5069609;28;20063;-81
2022/05/25 06:54:40;;;;;;;12.20;7.55;;;13.60;99.90;;;;;;5070839;28;20021;-80
2022/05/25 06:57:06;;;;;;;7.15;6.45;;;13.60;99.90;;;;;;5069439;28;20108;-81
2022/05/25 06:59:32;;;;;;;7.57;6.88;;;13.50;99.90;;;;;;5052563;28;20024;-81
2022/05/25 07:01:58;;;;;;;8.35;5.28;;;13.50;99.90;;;;;;5071416;28;20032;-80
2022/05/25 07:04:24;;;;;;;6.50;5.97;;;13.40;99.90;;;;;;5052637;28;20029;-81
2022/05/25 07:06:49;;;;;;;7.63;5.93;;;13.20;99.90;;;;;;5060681;28;20036;-80
2022/05/25 07:09:15;;;;;;;9.10;6.43;;;13.20;99.90;;;;;;5046780;28;20049;-79
2022/05/25 07:11:42;;;;;;;6.75;5.70;;;13.10;99.90;;;;;;5045443;28;20029;-82
2022/05/25 07:14:09;;;;;;;6.47;5.68;;;13.20;99.90;;;;;;5042846;28;20056;-82
2022/05/25 07:16:36;;;;;;;4.72;4.22;;;13.20;99.90;;;;;;5034787;28;20026;-82
2022/05/25 07:19:02;;;;;;;4.53;4.13;;;13.40;99.90;;;;;;5043626;28;20531;-81
2022/05/25 07:21:31;;;;;;;4.35;3.95;;;13.50;99.90;;;;;;5028166;28;20026;-80
2022/05/25 07:23:58;;;;;;;9.10;5.53;;;13.70;99.90;;;;;;5020083;28;20125;-81
2022/05/25 07:26:26;;;;;;;5.55;4.50;;;13.80;99.90;;;;;;5020115;28;20022;-80
2022/05/25 07:28:52;;;;;;;5.15;2.80;;;13.90;99.90;;;;;;5022259;28;20046;-81
2022/05/25 07:31:26;;;;;;;6.55;3.40;;;13.90;99.90;;;;;;5030799;28;20064;-81
2022/05/25 07:34:08;;;;;;;2.90;2.58;;;14.00;99.90;;;;;;5042147;28;20094;-81
2022/05/25 07:36:40;;;;;;;2.65;2.40;;;14.10;99.90;;;;;;5047752;28;20033;-80
2022/05/25 07:39:11;;;;;;;3.25;2.33;;;14.30;99.90;;;;;;5353610;22;20095;-82
2022/05/25 07:41:40;;;;;;;2.95;2.17;;;14.50;99.90;;;;;;5044755;28;20036;-80
2022/05/25 07:44:12;;;;;;;2.60;2.17;;;14.70;99.90;;;;;;5058888;28;20035;-84
2022/05/25 07:46:38;;;;;;;;;;;14.90;99.90;;;;;;5066071;28;20065;-82
2022/05/25 07:49:04;;;;;;;2.60;1.77;;;15.00;99.90;;;;;;5073472;28;19935;-83
2022/05/25 07:51:29;;;;;;;1.55;1.40;;;15.10;99.90;;;;;;5049624;28;20041;-83
2022/05/25 07:53:58;;;;;;;2.47;1.30;;;15.10;99.90;;;;;;5061705;28;20133;-82
2022/05/25 07:56:36;;;;;;;1.45;1.20;;;15.20;99.90;;;;;;5047004;28;20406;-84
2022/05/25 07:59:09;;;;;;;2.30;1.30;;;15.10;99.90;;;;;;5061059;28;20021;-83
2022/05/25 08:07:12;;;;;;;3.40;1.60;;;15.40;99.90;;;;;;5060307;28;20582;-83
2022/05/25 08:09:38;;;;;;;1.67;0.90;;;15.70;99.90;;;;;;5061089;28;20061;-84
2022/05/25 08:12:07;;;;;;;2.38;0.80;;;15.80;99.90;;;;;;5064537;28;20041;-82
2022/05/25 08:14:33;;;;;;;0.80;0.80;;;15.90;99.90;;;;;;5061231;28;20091;-82
2022/05/25 08:16:59;;;;;;;0.70;0.70;;;16.10;99.90;;;;;;5048362;28;20102;-83
2022/05/25 08:19:25;;;;;;;1.40;1.00;;;16.20;99.90;;;;;;5076389;28;20009;-83
2022/05/25 08:21:54;;;;;;;1.27;1.00;;;16.20;99.90;;;;;;5080667;28;20032;-83
2022/05/25 08:24:19;;;;;;;1.48;1.00;;;16.20;99.90;;;;;;5062089;28;20028;-82
2022/05/25 08:26:45;;;;;;;1.63;1.05;;;16.20;99.90;;;;;;5065549;28;20028;-84
2022/05/25 08:29:11;;;;;;;1.50;1.40;;;16.20;99.90;;;;;;5064985;28;20012;-83
2022/05/25 08:31:37;;;;;;;1.30;1.00;;;16.40;99.90;;;;;;5063863;28;20100;-85
2022/05/25 08:34:04;;;;;;;1.15;0.90;;;16.70;99.90;;;;;;5061541;28;20021;-84
2022/05/25 08:36:30;;;;;;;1.30;1.13;;;17.00;99.90;;;;;;5061513;28;20041;-85
2022/05/25 08:38:56;;;;;;;2.60;0.95;;;17.60;99.90;;;;;;5061665;28;20032;-86
2022/05/25 08:41:43;;;;;;;1.65;1.10;;;18.00;99.90;;;;;;5061583;28;20021;-83
2022/05/25 08:44:10;;;;;;;1.10;1.00;;;18.00;99.90;;;;;;5049063;28;20085;-84
2022/05/25 08:46:37;;;;;;;2.83;0.85;;;17.90;99.90;;;;;;5045344;28;20025;-84
2022/05/25 08:49:10;;;;;;;1.52;1.15;;;17.90;99.90;;;;;;5054433;28;20016;-85
2022/05/25 08:51:50;;;;;;;0.90;0.90;;;18.10;99.90;;;;;;5060433;28;20485;-85
2022/05/25 08:54:17;;;;;;;0.90;0.80;;;18.30;99.90;;;;;;5061714;28;20361;-84
2022/05/25 08:56:47;;;;;;;0.75;0.73;;;18.40;99.90;;;;;;5057797;28;20033;-83
2022/05/25 08:59:23;;;;;;;1.05;0.93;;;18.50;99.90;;;;;;5061368;28;20047;-83
2022/05/25 09:01:53;;;;;;;0.85;0.85;;;18.60;99.90;;;;;;5040745;28;20031;-82
2022/05/25 09:04:44;;;;;;;1.38;1.10;;;18.70;99.90;;;;;;5058995;28;20037;-82
2022/05/25 09:07:21;;;;;;;0.88;0.88;;;18.80;99.90;;;;;;5058116;28;20025;-82
2022/05/25 09:09:49;;;;;;;1.67;1.15;;;18.80;99.90;;;;;;5042349;28;20025;-82
2022/05/25 09:12:25;;;;;;;1.77;1.17;;;18.80;99.90;;;;;;5058471;28;20482;-83
2022/05/25 09:15:13;;;;;;;1.08;0.70;;;18.80;97.50;;;;;;5062333;28;20582;-83
2022/05/25 09:17:46;;;;;;;0.98;0.90;;;18.70;98.20;;;;;;5051166;28;20025;-83
2022/05/25 09:20:17;;;;;;;0.88;0.80;;;18.60;98.40;;;;;;5058246;28;20032;-83
2022/05/25 09:22:43;;;;;;;1.13;0.80;;;18.70;98.60;;;;;;5021615;28;20087;-82
2022/05/25 09:25:12;;;;;;;2.97;1.52;;;18.60;89.80;;;;;;5032879;28;20031;-83
2022/05/25 09:27:47;;;;;;;0.88;0.88;;;18.60;90.20;;;;;;5060622;28;20433;-82
2022/05/25 09:30:13;;;;;;;2.55;0.80;;;18.40;89.00;;;;;;5041724;28;20029;-83
2022/05/25 09:33:14;;;;;;;1.35;0.77;;;18.30;88.30;;;;;;5058429;28;20039;-83
2022/05/25 09:35:47;;;;;;;0.95;0.90;;;18.10;88.50;;;;;;5055222;28;20029;-82
2022/05/25 09:38:48;;;;;;;1.60;1.15;;;18.20;89.50;;;;;;5041268;28;20037;-83
2022/05/25 09:41:19;;;;;;;2.08;1.15;;;18.10;86.50;;;;;;5038464;28;20024;-83
2022/05/25 09:43:45;;;;;;;2.20;1.40;;;18.20;85.00;;;;;;5068416;28;20059;-82
2022/05/25 09:46:35;;;;;;;1.48;0.98;;;18.20;85.20;;;;;;5053829;28;20029;-84
2022/05/25 09:49:08;;;;;;;3.50;1.50;;;18.30;86.00;;;;;;5026479;28;20049;-84
2022/05/25 09:51:54;;;;;;;1.23;0.70;;;18.60;83.90;;;;;;5064647;28;20169;-81
2022/05/25 09:54:46;;;;;;;1.05;0.75;;;18.90;82.50;;;;;;5059772;28;20029;-81
2022/05/25 09:57:30;;;;;;;2.88;0.88;;;19.20;81.30;;;;;;5061504;28;20017;-82
2022/05/25 10:00:02;;;;;;;2.40;1.30;;;19.50;79.20;;;;;;5063004;28;20104;-82
2022/05/25 10:02:47;;;;;;;1.10;0.90;;;19.60;77.30;;;;;;5061754;28;20071;-82
2022/05/25 10:05:30;;;;;;;1.40;0.95;;;19.60;75.80;;;;;;5061502;28;20064;-82
2022/05/25 10:08:17;;;;;;;1.45;1.17;;;19.80;79.20;;;;;;5060561;28;20088;-82
2022/05/25 10:10:56;;;;;;;0.95;0.95;;;20.20;76.30;;;;;;5035509;28;20175;-81
2022/05/25 10:13:36;;;;;;;1.10;0.90;;;20.40;73.80;;;;;;5049257;28;20037;-83
2022/05/25 10:16:20;;;;;;;2.30;1.00;;;20.20;74.30;;;;;;5068286;28;20021;-82
2022/05/25 10:18:46;;;;;;;2.20;1.35;;;20.00;73.90;;;;;;5068048;28;20047;-82
2022/05/25 10:21:47;;;;;;;0.70;0.70;;;20.00;76.10;;;;;;5045261;28;20021;-83
2022/05/25 10:24:22;;;;;;;1.30;0.65;;;20.20;75.10;;;;;;5007406;28;20037;-84
2022/05/25 10:27:00;;;;;;;0.50;0.50;;;20.30;73.80;;;;;;5065846;28;20470;-83
2022/05/25 10:38:27;;;;;;;2.13;0.63;;;20.30;72.00;;;;;;5068166;28;20134;-79
2022/05/25 10:40:58;;;;;;;2.25;1.13;;;20.30;70.80;;;;;;5069017;28;20044;-80
2022/05/25 10:43:27;;;;;;;0.50;0.43;;;20.30;71.20;;;;;;5069055;28;20047;-80
2022/05/25 10:45:55;;;;;;;0.68;0.68;;;20.30;70.80;;;;;;5050884;28;20092;-80
2022/05/25 10:48:41;;;;;;;0.52;0.50;;;20.40;70.20;;;;;;5078040;28;20039;-80
2022/05/25 10:51:13;;;;;;;0.70;0.68;;;20.40;68.70;;;;;;5078351;28;20020;-82
2022/05/25 10:57:17;;;;;;;1.15;0.40;;;21.00;66.60;;;;;;5001032;28;20042;-82
2022/05/25 11:00:01;;;;;;;0.70;0.47;;;21.40;64.20;;;;;;5048341;28;20041;-81
2022/05/25 11:03:01;;;;;;;0.68;0.35;;;21.80;62.30;;;;;;5064279;28;20029;-82
2022/05/25 11:05:52;;;;;;;0.50;0.50;;;22.10;61.60;;;;;;5054265;28;20032;-82
2022/05/25 11:08:35;;;;;;;0.40;0.40;;;22.10;60.60;;;;;;5060561;28;20032;-83
2022/05/25 11:11:10;;;;;;;1.42;1.13;;;22.00;60.50;;;;;;5059752;28;20029;-82
2022/05/25 11:13:38;;;;;;;1.20;0.57;;;21.80;60.50;;;;;;5044519;28;20040;-82
2022/05/25 11:16:16;;;;;;;0.52;0.50;;;21.60;60.30;;;;;;5059139;28;20025;-82
2022/05/25 11:18:43;;;;;;;0.45;0.40;;;21.50;61.60;;;;;;5050955;28;20024;-84
2022/05/25 11:21:17;;;;;;;0.50;0.43;;;21.70;61.60;;;;;;5070860;28;20017;-81
2022/05/25 11:23:57;;;;;;;0.63;0.35;;;22.00;62.20;;;;;;5045847;28;20029;-81
2022/05/25 11:27:08;;;;;;;0.50;0.40;;;22.20;61.50;;;;;;5045026;28;20020;-82
2022/05/25 11:29:59;;;;;;;0.40;0.35;;;21.80;61.20;;;;;;4981844;28;20082;-82
2022/05/25 11:32:41;;;;;;;0.65;0.60;;;21.20;62.70;;;;;;5059253;28;20065;-82
2022/05/25 11:35:11;;;;;;;0.93;0.70;;;20.70;64.40;;;;;;5059373;28;20352;-82
2022/05/25 11:37:52;;;;;;;0.45;0.30;;;20.20;66.10;;;;;;5063600;28;20094;-81
2022/05/25 11:40:53;;;;;;;0.50;0.40;;;19.90;68.00;;;;;;5061595;28;20096;-82
2022/05/25 11:43:30;;;;;;;0.40;0.40;;;19.60;69.50;;;;;;5063091;28;20025;-82
2022/05/25 11:46:11;;;;;;;1.17;0.50;;;19.40;70.70;;;;;;5059359;28;20025;-82
2022/05/25 11:49:04;;;;;;;0.57;0.40;;;19.40;71.40;;;;;;5105124;22;20551;-81
2022/05/25 11:51:36;;;;;;;0.90;0.70;;;19.40;71.10;;;;;;5045323;28;20040;-82
2022/05/25 11:54:13;;;;;;;2.47;0.70;;;19.60;71.10;;;;;;5057672;28;20044;-81
2022/05/25 11:57:15;;;;;;;0.45;0.45;;;19.80;70.10;;;;;;5061942;28;20017;-82
2022/05/25 11:59:59;;;;;;;0.57;0.40;;;20.10;70.20;;;;;;5042090;28;20022;-81
2022/05/25 12:02:28;;;;;;;0.40;0.40;;;20.50;69.80;;;;;;5042761;28;20029;-81
2022/05/25 12:05:28;;;;;;;1.80;0.50;;;21.10;67.70;;;;;;5045494;28;20100;-81
2022/05/25 12:08:22;;;;;;;1.52;0.80;;;21.60;66.10;;;;;;5042782;28;20029;-82
2022/05/25 12:11:10;;;;;;;0.55;0.55;;;22.20;63.10;;;;;;5034652;28;20025;-81
2022/05/25 12:14:06;;;;;;;0.60;0.52;;;22.50;63.10;;;;;;5045798;28;20037;-83
2022/05/25 12:16:40;;;;;;;0.40;0.40;;;22.60;61.10;;;;;;5047000;28;20022;-82
2022/05/25 12:19:21;;;;;;;0.60;0.60;;;22.70;61.40;;;;;;5052483;28;20052;-82
2022/05/25 12:22:00;;;;;;;1.53;0.90;;;22.70;61.20;;;;;;5050209;28;20029;-82
2022/05/25 12:24:40;;;;;;;0.65;0.65;;;22.70;62.40;;;;;;5044545;28;20045;-81
2022/05/25 12:27:11;;;;;;;1.27;0.90;;;23.10;62.00;;;;;;5043202;28;20033;-82
2022/05/25 12:29:43;;;;;;;1.20;0.98;;;23.40;60.60;;;;;;5041504;28;20056;-82
2022/05/25 12:32:10;;;;;;;0.75;0.75;;;23.60;60.10;;;;;;5041921;28;20025;-82
2022/05/25 12:34:46;;;;;;;0.65;0.60;;;23.50;59.50;;;;;;5023695;28;20033;-80
2022/05/25 12:37:15;;;;;;;0.65;0.50;;;23.20;59.60;;;;;;5038923;28;20021;-81
2022/05/25 12:40:11;;;;;;;1.63;0.80;;;23.00;59.70;;;;;;5042223;28;20068;-79
2022/05/25 12:42:40;;;;;;;1.45;0.50;;;22.50;59.20;;;;;;5045450;28;20059;-81
2022/05/25 12:48:35;;;;;;;1.45;0.50;;;21.60;61.10;;;;;;5040460;28;20091;-83
2022/05/25 12:51:40;;;;;;;0.60;0.50;;;21.10;61.90;;;;;;5044514;28;20013;-79
2022/05/25 12:54:22;;;;;;;1.70;0.35;;;20.50;63.10;;;;;;4978316;28;20065;-80
2022/05/25 12:56:50;;;;;;;0.50;0.50;;;20.20;64.50;;;;;;5023829;28;20069;-79
2022/05/25 12:59:37;;;;;;;0.93;0.60;;;19.90;65.40;;;;;;5023628;28;20048;-79
2022/05/25 13:02:32;;;;;;;0.80;0.77;;;19.70;65.50;;;;;;5030902;28;20034;-82
2022/05/25 13:04:59;;;;;;;3.03;0.70;;;19.30;67.70;;;;;;5039363;28;20054;-81
2022/05/25 13:07:42;;;;;;;2.08;0.93;;;19.20;68.00;;;;;;5042799;28;20033;-79
2022/05/25 13:10:33;;;;;;;1.70;0.77;;;19.20;68.50;;;;;;5039197;28;20124;-79
2022/05/25 13:13:38;;;;;;;1.77;1.00;;;19.20;67.30;;;;;;5039856;28;20032;-80
2022/05/25 13:16:04;;;;;;;1.90;0.95;;;19.20;67.60;;;;;;5021359;28;20045;-80
2022/05/25 13:18:49;;;;;;;3.30;1.02;;;19.20;67.00;;;;;;5038131;28;20139;-78
2022/05/25 13:21:30;;;;;;;1.10;0.60;;;19.10;68.40;;;;;;5040294;28;20366;-80
2022/05/25 13:23:56;;;;;;;2.28;0.60;;;19.00;68.10;;;;;;5040322;28;20104;-78
2022/05/25 13:26:40;;;;;;;1.17;0.65;;;18.90;68.80;;;;;;5040739;28;20049;-80
2022/05/25 13:29:13;;;;;;;0.75;0.75;;;18.90;68.20;;;;;;5042563;28;20073;-80
2022/05/25 13:31:59;;;;;;;1.00;0.77;;;19.00;68.40;;;;;;5041393;28;20029;-80
2022/05/25 13:34:31;;;;;;;1.45;1.02;;;19.20;69.30;;;;;;5040524;28;20031;-78
2022/05/25 13:37:01;;;;;;;1.88;0.75;;;19.50;68.20;;;;;;5038478;28;20478;-78
2022/05/25 13:39:28;;;;;;;2.08;0.60;;;19.70;67.40;;;;;;5039277;28;20029;-78
2022/05/25 13:42:08;;;;;;;2.90;0.80;;;19.90;66.70;;;;;;5037331;28;20494;-80
2022/05/25 13:44:53;;;;;;;1.60;0.90;;;20.00;66.10;;;;;;5038380;28;20074;-80
2022/05/25 13:47:25;;;;;;;1.33;0.70;;;20.10;66.00;;;;;;5038423;28;20037;-80
2022/05/25 13:49:52;;;;;;;;;;;20.20;65.40;;;;;;5046428;28;20033;-80
2022/05/25 13:52:25;;;;;;;0.80;0.65;;;20.50;65.00;;;;;;5038104;28;19923;-80